Time;durP1;ratioP1;P1;durP2;ratioP2;P2;SDS_P1;SDS_P2;PMS_P1;PMS_P2;Temp;Humidity;BMP_temperature;BMP_pressure;BME280_temperature;BME280_humidity;BME280_pressure;Samples;Min_cycle;Max_cycle;Signal;HPM_P1;HPM_P2
2023/01/09 00:01:48;;;;;;;2.55;2.45;;;9.50;99.90;;;;;;4015671;29;20278;-91
2023/01/09 00:04:08;;;;;;;2.70;2.70;;;9.60;99.90;;;;;;4015737;29;20056;-91
2023/01/09 00:06:28;;;;;;;2.80;2.80;;;9.60;99.90;;;;;;4015167;29;20065;-92
2023/01/09 00:08:47;;;;;;;2.40;2.40;;;9.60;99.90;;;;;;4015642;29;20049;-90
2023/01/09 00:11:07;;;;;;;2.47;2.47;;;9.70;99.90;;;;;;4015047;29;20065;-92
2023/01/09 00:13:27;;;;;;;2.80;2.80;;;9.70;99.90;;;;;;4014513;29;20044;-91
2023/01/09 00:15:48;;;;;;;2.25;2.25;;;9.70;99.90;;;;;;4015117;29;20383;-92
2023/01/09 00:18:08;;;;;;;2.47;2.47;;;9.70;99.90;;;;;;4027372;29;20064;-92
2023/01/09 00:20:28;;;;;;;2.25;2.25;;;9.70;99.90;;;;;;4016136;29;20056;-90
2023/01/09 00:22:48;;;;;;;2.50;2.50;;;9.70;99.90;;;;;;4027551;29;20121;-90
2023/01/09 00:25:08;;;;;;;2.10;2.00;;;9.80;99.90;;;;;;4015359;29;20053;-91
2023/01/09 00:27:32;;;;;;;2.05;2.05;;;9.80;99.90;;;;;;4015514;29;20052;-92
2023/01/09 00:29:52;;;;;;;2.10;2.10;;;9.80;99.90;;;;;;4014341;29;20048;-93
2023/01/09 00:32:12;;;;;;;1.80;1.80;;;9.80;99.90;;;;;;4027590;29;20125;-93
2023/01/09 00:34:36;;;;;;;2.58;2.47;;;9.80;99.90;;;;;;4015412;29;20052;-92
2023/01/09 00:36:56;;;;;;;2.35;2.35;;;9.80;99.90;;;;;;4013549;29;20049;-92
2023/01/09 00:39:15;;;;;;;2.53;2.53;;;9.80;99.90;;;;;;4014916;29;20407;-91
2023/01/09 00:41:40;;;;;;;2.78;2.78;;;9.90;99.90;;;;;;4014222;29;20233;-92
2023/01/09 00:44:06;;;;;;;2.35;2.35;;;9.90;99.90;;;;;;4014520;29;20044;-92
2023/01/09 00:46:32;;;;;;;2.17;2.17;;;9.90;99.90;;;;;;4014255;29;20044;-92
2023/01/09 00:48:52;;;;;;;2.45;2.45;;;10.00;99.90;;;;;;4015318;29;20048;-92
2023/01/09 00:51:12;;;;;;;2.22;2.22;;;10.10;99.90;;;;;;4015535;29;20283;-91
2023/01/09 00:53:33;;;;;;;2.50;2.50;;;10.10;99.90;;;;;;4014227;29;20060;-90
2023/01/09 00:55:56;;;;;;;2.63;2.60;;;10.00;99.90;;;;;;4010027;29;20057;-92
2023/01/09 00:58:17;;;;;;;2.47;2.47;;;10.00;99.90;;;;;;4014827;29;20368;-92
2023/01/09 01:00:37;;;;;;;2.80;2.80;;;10.00;99.90;;;;;;4016046;29;20052;-91
2023/01/09 01:02:57;;;;;;;2.10;2.10;;;10.00;99.90;;;;;;4015097;29;20372;-92
2023/01/09 01:07:55;;;;;;;2.50;2.50;;;10.10;99.90;;;;;;4013379;29;20392;-92
2023/01/09 01:10:19;;;;;;;2.33;2.33;;;10.10;99.90;;;;;;4014996;29;20312;-92
2023/01/09 01:12:39;;;;;;;2.65;2.50;;;10.10;99.90;;;;;;4014255;29;20094;-92
2023/01/09 01:14:59;;;;;;;2.35;2.35;;;10.20;99.90;;;;;;4014931;29;20060;-91
2023/01/09 01:17:19;;;;;;;2.20;2.20;;;10.20;99.90;;;;;;4014262;29;20121;-91
2023/01/09 01:19:39;;;;;;;2.00;2.00;;;10.20;99.90;;;;;;4019844;29;20057;-92
2023/01/09 01:22:00;;;;;;;2.50;2.50;;;10.20;99.90;;;;;;4004492;29;20061;-92
2023/01/09 01:24:19;;;;;;;1.85;1.85;;;10.20;99.90;;;;;;4014908;29;20121;-90
2023/01/09 01:26:39;;;;;;;2.25;2.20;;;10.20;99.90;;;;;;4014279;29;20072;-91
2023/01/09 01:28:59;;;;;;;1.83;1.80;;;10.20;99.90;;;;;;4025961;29;20057;-92
2023/01/09 01:31:19;;;;;;;1.92;1.92;;;10.30;99.90;;;;;;4014741;29;20056;-92
2023/01/09 01:33:39;;;;;;;1.70;1.70;;;10.30;99.90;;;;;;4001251;29;20274;-92
2023/01/09 01:36:04;;;;;;;1.98;1.98;;;10.30;99.90;;;;;;4015058;29;20060;-91
2023/01/09 01:38:24;;;;;;;1.73;1.73;;;10.40;99.90;;;;;;4019841;29;20049;-91
2023/01/09 01:40:44;;;;;;;1.70;1.65;;;10.30;99.90;;;;;;4019758;29;20057;-90
2023/01/09 01:43:03;;;;;;;1.75;1.65;;;10.40;99.90;;;;;;4010319;29;20094;-90
2023/01/09 01:45:27;;;;;;;2.10;2.10;;;10.60;99.90;;;;;;4018292;29;20256;-92
2023/01/09 01:48:08;;;;;;;2.13;2.10;;;10.50;99.90;;;;;;4019750;29;20367;-92
2023/01/09 01:50:33;;;;;;;2.38;2.28;;;10.50;99.90;;;;;;4019503;29;20342;-92
2023/01/09 01:52:58;;;;;;;1.70;1.70;;;10.50;99.90;;;;;;4019082;29;20045;-91
2023/01/09 01:55:19;;;;;;;1.90;1.90;;;10.50;99.90;;;;;;4018403;29;20066;-92
2023/01/09 01:57:46;;;;;;;1.95;1.85;;;10.50;99.90;;;;;;4018630;29;20237;-91
2023/01/09 02:00:07;;;;;;;1.90;1.90;;;10.60;99.90;;;;;;4018545;29;20090;-92
2023/01/09 02:02:31;;;;;;;2.20;2.20;;;10.60;99.90;;;;;;4017969;29;20094;-92
2023/01/09 02:04:53;;;;;;;2.00;1.90;;;10.60;99.90;;;;;;4031807;29;20053;-92
2023/01/09 02:07:13;;;;;;;2.17;2.17;;;10.60;99.90;;;;;;4018268;29;20053;-92
2023/01/09 02:09:35;;;;;;;2.15;2.15;;;10.70;99.90;;;;;;4019491;29;20045;-92
2023/01/09 02:11:56;;;;;;;2.08;2.08;;;10.60;99.90;;;;;;4017553;29;20056;-92
2023/01/09 02:14:18;;;;;;;2.30;2.30;;;10.60;99.90;;;;;;4019489;29;20057;-91
2023/01/09 02:16:46;;;;;;;1.85;1.75;;;10.60;99.90;;;;;;4031392;29;20154;-92
2023/01/09 02:19:41;;;;;;;1.60;1.60;;;10.70;99.90;;;;;;4031466;29;20056;-91
2023/01/09 02:22:42;;;;;;;2.83;2.17;;;10.80;99.90;;;;;;4019119;29;20041;-91
2023/01/09 02:25:08;;;;;;;1.92;1.92;;;10.80;99.90;;;;;;4017812;29;20053;-92
2023/01/09 02:28:06;;;;;;;2.38;2.35;;;10.80;99.90;;;;;;4018169;29;20072;-92
2023/01/09 02:30:35;;;;;;;2.38;2.28;;;11.00;99.90;;;;;;4007637;29;20415;-92
2023/01/09 02:33:13;;;;;;;2.15;1.95;;;10.90;99.90;;;;;;4018307;29;20063;-93
2023/01/09 02:35:49;;;;;;;1.83;1.83;;;11.00;99.90;;;;;;4018983;29;20253;-91
2023/01/09 02:38:28;;;;;;;2.65;2.65;;;11.00;99.90;;;;;;4019048;29;20054;-92
2023/01/09 02:41:03;;;;;;;2.03;1.92;;;10.90;99.90;;;;;;4006064;29;20057;-91
2023/01/09 02:43:24;;;;;;;2.92;2.83;;;11.00;99.90;;;;;;4019087;29;20056;-92
2023/01/09 02:45:44;;;;;;;2.10;2.05;;;11.10;99.90;;;;;;4019002;29;20057;-90
2023/01/09 02:48:04;;;;;;;2.83;1.85;;;11.20;99.90;;;;;;4006086;29;20045;-91
2023/01/09 02:50:38;;;;;;;2.25;2.25;;;11.20;99.90;;;;;;4016331;29;20069;-91
2023/01/09 02:53:45;;;;;;;2.05;1.80;;;11.20;99.90;;;;;;4016708;29;20094;-92
2023/01/09 02:56:16;;;;;;;2.85;2.45;;;11.30;99.90;;;;;;3967604;30;20120;-91
2023/01/09 02:59:20;;;;;;;2.05;2.00;;;11.30;99.90;;;;;;3968427;30;20266;-92
2023/01/09 03:01:57;;;;;;;1.70;1.60;;;11.30;99.90;;;;;;3969725;30;20235;-91
2023/01/09 03:04:47;;;;;;;1.55;1.50;;;11.20;99.90;;;;;;3968036;30;20251;-91
2023/01/09 03:07:20;;;;;;;2.15;2.15;;;11.10;99.90;;;;;;3968424;30;20054;-91
2023/01/09 03:09:42;;;;;;;2.40;2.30;;;11.10;99.90;;;;;;3967616;30;20116;-91
2023/01/09 03:12:20;;;;;;;2.75;2.65;;;11.10;99.90;;;;;;3955313;30;20093;-91
2023/01/09 03:14:46;;;;;;;2.90;2.80;;;11.10;99.90;;;;;;3969520;30;20258;-92
2023/01/09 03:17:12;;;;;;;2.05;1.95;;;11.10;99.90;;;;;;3962685;30;20085;-90
2023/01/09 03:19:34;;;;;;;2.20;2.10;;;11.10;99.90;;;;;;3968832;30;20208;-91
2023/01/09 03:21:55;;;;;;;2.40;2.30;;;11.20;99.90;;;;;;3968456;30;20385;-92
2023/01/09 03:24:15;;;;;;;2.45;2.13;;;11.20;99.90;;;;;;3966946;30;20086;-92
2023/01/09 03:26:35;;;;;;;3.40;3.22;;;11.30;99.90;;;;;;3968665;30;20180;-92
2023/01/09 03:28:56;;;;;;;3.10;2.97;;;11.30;99.90;;;;;;3955955;30;20059;-90
2023/01/09 03:31:17;;;;;;;2.67;2.42;;;11.20;99.90;;;;;;3966145;30;20094;-91
2023/01/09 03:33:37;;;;;;;2.63;2.60;;;11.20;99.90;;;;;;4026777;29;20044;-92
2023/01/09 03:35:57;;;;;;;2.50;2.40;;;11.20;99.90;;;;;;4016138;29;20049;-92
2023/01/09 03:38:17;;;;;;;2.75;2.60;;;11.20;99.90;;;;;;4014869;29;20080;-92
2023/01/09 03:40:37;;;;;;;3.63;2.83;;;11.20;99.90;;;;;;4015327;29;20065;-90
2023/01/09 03:42:57;;;;;;;2.83;2.40;;;11.30;99.90;;;;;;4016057;29;20070;-92
2023/01/09 03:45:17;;;;;;;3.78;3.47;;;11.20;99.90;;;;;;4015229;29;20092;-92
2023/01/09 03:47:37;;;;;;;4.57;4.25;;;11.20;99.90;;;;;;4027247;29;20323;-93
2023/01/09 03:49:57;;;;;;;3.28;3.13;;;11.20;99.90;;;;;;4016101;29;20053;-92
2023/01/09 03:52:16;;;;;;;3.25;2.88;;;11.30;99.90;;;;;;4016003;29;20387;-92
2023/01/09 03:54:38;;;;;;;2.72;2.53;;;11.30;99.90;;;;;;4015891;29;20053;-91
2023/01/09 03:56:57;;;;;;;3.05;2.85;;;11.30;99.90;;;;;;4004945;29;20091;-92
2023/01/09 03:59:17;;;;;;;3.28;2.95;;;11.30;99.90;;;;;;4014936;29;20061;-91
2023/01/09 04:01:37;;;;;;;4.13;2.50;;;11.30;99.90;;;;;;4014763;29;20098;-92
2023/01/09 04:03:57;;;;;;;2.60;2.40;;;11.30;99.90;;;;;;4014960;29;20049;-92
2023/01/09 04:06:17;;;;;;;4.57;3.88;;;11.50;99.90;;;;;;4014791;29;20056;-91
2023/01/09 04:08:37;;;;;;;3.10;2.80;;;11.60;99.90;;;;;;4015602;29;20230;-91
2023/01/09 04:10:57;;;;;;;2.65;2.47;;;11.50;99.90;;;;;;4015393;29;20053;-91
2023/01/09 04:13:17;;;;;;;3.38;3.17;;;11.40;99.90;;;;;;4014013;29;20260;-91
2023/01/09 04:15:37;;;;;;;2.83;2.35;;;11.40;99.90;;;;;;4015592;29;20483;-91
2023/01/09 04:17:56;;;;;;;3.65;3.50;;;11.50;99.90;;;;;;4015112;29;20072;-91
2023/01/09 04:20:17;;;;;;;3.95;2.75;;;11.50;99.90;;;;;;4015534;29;20061;-91
2023/01/09 04:22:37;;;;;;;3.10;2.80;;;11.50;99.90;;;;;;4015343;29;20061;-91
2023/01/09 04:24:57;;;;;;;3.45;3.17;;;11.50;99.90;;;;;;4015083;29;20052;-92
2023/01/09 04:27:17;;;;;;;6.22;3.20;;;11.50;99.90;;;;;;4015602;29;20052;-91
2023/01/09 04:29:37;;;;;;;3.20;2.58;;;11.50;99.90;;;;;;4012963;29;20091;-92
2023/01/09 04:31:58;;;;;;;4.97;3.47;;;11.50;99.90;;;;;;4013691;29;20278;-92
2023/01/09 04:34:17;;;;;;;4.93;3.42;;;11.40;99.90;;;;;;4015061;29;20235;-91
2023/01/09 04:36:38;;;;;;;5.47;2.53;;;11.50;99.90;;;;;;4015378;29;20084;-92
2023/01/09 04:38:58;;;;;;;4.35;3.95;;;11.50;99.90;;;;;;4014934;29;20064;-92
2023/01/09 04:43:56;;;;;;;3.92;3.72;;;11.50;99.90;;;;;;4014993;29;20090;-91
2023/01/09 04:46:16;;;;;;;5.40;3.85;;;11.50;99.90;;;;;;4014836;29;20048;-91
2023/01/09 04:48:36;;;;;;;4.20;3.22;;;11.50;99.90;;;;;;4005972;29;20059;-92
2023/01/09 04:50:56;;;;;;;7.22;3.20;;;11.60;99.90;;;;;;4015232;29;20249;-90
2023/01/09 04:53:16;;;;;;;3.70;3.40;;;11.70;99.90;;;;;;4015276;29;20073;-91
2023/01/09 04:55:36;;;;;;;6.05;3.83;;;11.60;99.90;;;;;;4026741;29;20125;-90
2023/01/09 04:57:56;;;;;;;3.58;3.33;;;11.60;99.90;;;;;;4014020;29;20128;-92
2023/01/09 05:00:16;;;;;;;3.33;3.13;;;11.60;99.90;;;;;;4015152;29;20052;-92
2023/01/09 05:02:37;;;;;;;4.43;4.05;;;11.60;99.90;;;;;;4014200;29;20045;-91
2023/01/09 05:04:56;;;;;;;7.05;3.88;;;11.60;99.90;;;;;;4013777;29;20057;-93
2023/01/09 05:07:18;;;;;;;4.72;4.07;;;11.60;99.90;;;;;;4021599;29;20129;-92
2023/01/09 05:09:38;;;;;;;4.90;3.55;;;11.60;99.90;;;;;;4014474;29;20094;-92
2023/01/09 05:11:57;;;;;;;9.63;4.75;;;11.60;99.90;;;;;;4025960;29;20057;-91
2023/01/09 05:14:18;;;;;;;9.80;4.55;;;11.60;99.90;;;;;;4013472;29;20256;-91
2023/01/09 05:16:38;;;;;;;7.47;3.53;;;11.70;99.90;;;;;;4015073;29;20057;-92
2023/01/09 05:18:59;;;;;;;5.20;4.57;;;11.70;99.90;;;;;;4013996;29;20064;-92
2023/01/09 05:21:19;;;;;;;5.28;3.75;;;11.80;99.90;;;;;;4005003;29;20297;-92
2023/01/09 05:23:38;;;;;;;3.60;3.30;;;11.80;99.90;;;;;;4015049;29;20052;-92
2023/01/09 05:25:59;;;;;;;6.68;3.90;;;11.80;99.90;;;;;;4013425;29;20053;-92
2023/01/09 05:28:19;;;;;;;4.75;3.58;;;11.70;99.90;;;;;;4012792;29;20053;-92
2023/01/09 05:30:38;;;;;;;3.15;2.92;;;11.80;99.90;;;;;;4008570;29;20279;-92
2023/01/09 05:32:58;;;;;;;4.45;2.58;;;11.80;99.90;;;;;;4014413;29;20082;-90
2023/01/09 05:35:19;;;;;;;6.45;4.53;;;11.70;99.90;;;;;;4014645;29;20060;-91
2023/01/09 05:37:39;;;;;;;10.75;4.32;;;11.70;99.90;;;;;;4014516;29;20053;-92
2023/01/09 05:39:59;;;;;;;3.95;3.53;;;11.70;99.90;;;;;;4014501;29;20294;-92
2023/01/09 05:42:19;;;;;;;7.80;3.30;;;11.70;99.90;;;;;;4014715;29;20057;-92
2023/01/09 05:44:38;;;;;;;4.10;3.95;;;11.70;99.90;;;;;;4005580;29;20056;-92
2023/01/09 05:46:58;;;;;;;3.67;3.35;;;11.70;99.90;;;;;;4026214;29;20049;-90
2023/01/09 05:49:20;;;;;;;7.25;3.97;;;11.70;99.90;;;;;;4025963;29;20270;-91
2023/01/09 05:51:40;;;;;;;6.90;4.07;;;11.70;99.90;;;;;;4013362;29;20335;-91
2023/01/09 05:54:01;;;;;;;5.03;4.22;;;11.70;99.90;;;;;;4014008;29;20070;-91
2023/01/09 05:56:21;;;;;;;4.97;3.60;;;11.70;99.90;;;;;;4013641;29;20057;-91
2023/01/09 05:58:41;;;;;;;9.57;3.88;;;11.70;99.90;;;;;;4026191;29;20307;-91
2023/01/09 06:01:00;;;;;;;5.10;4.53;;;11.70;99.90;;;;;;4012359;29;20158;-89
2023/01/09 06:03:20;;;;;;;5.07;3.60;;;11.70;99.90;;;;;;4011908;29;20095;-91
2023/01/09 06:05:40;;;;;;;6.70;4.22;;;11.70;99.90;;;;;;4013377;29;20368;-92
2023/01/09 06:08:00;;;;;;;5.30;3.78;;;11.70;99.90;;;;;;4013154;29;20057;-92
2023/01/09 06:10:20;;;;;;;4.55;3.63;;;11.70;99.90;;;;;;4014393;29;20269;-91
2023/01/09 06:12:43;;;;;;;3.90;3.38;;;11.70;99.90;;;;;;4013054;29;20237;-90
2023/01/09 06:15:04;;;;;;;3.17;3.00;;;11.60;99.90;;;;;;4013987;29;20278;-91
2023/01/09 06:17:26;;;;;;;8.57;4.90;;;11.60;99.90;;;;;;4013761;29;20061;-92
2023/01/09 06:19:46;;;;;;;9.02;3.67;;;11.60;99.90;;;;;;4013437;29;20380;-91
2023/01/09 06:22:06;;;;;;;5.30;2.88;;;11.60;99.90;;;;;;4012215;29;20048;-88
2023/01/09 06:24:26;;;;;;;7.72;3.75;;;11.50;99.90;;;;;;4016449;29;20257;-88
2023/01/09 06:26:46;;;;;;;4.72;4.05;;;11.60;99.90;;;;;;4017216;29;20064;-88
2023/01/09 06:29:06;;;;;;;8.60;4.03;;;11.60;99.90;;;;;;4027923;29;20106;-87
2023/01/09 06:31:26;;;;;;;3.08;2.85;;;11.60;99.90;;;;;;4014383;29;20080;-87
2023/01/09 06:33:46;;;;;;;5.05;3.80;;;11.50;99.90;;;;;;4016203;29;20049;-88
2023/01/09 06:36:07;;;;;;;6.43;3.88;;;11.60;99.90;;;;;;4014913;29;20098;-88
2023/01/09 06:38:27;;;;;;;5.88;3.85;;;11.60;99.90;;;;;;4016570;29;20057;-88
2023/01/09 06:40:46;;;;;;;5.85;4.25;;;11.60;99.90;;;;;;4016530;29;20057;-88
2023/01/09 06:43:06;;;;;;;5.80;4.40;;;11.60;99.90;;;;;;4016474;29;20065;-88
2023/01/09 06:45:27;;;;;;;5.70;4.75;;;11.60;99.90;;;;;;4017898;29;20068;-88
2023/01/09 06:47:47;;;;;;;12.63;5.20;;;11.60;99.90;;;;;;4015679;29;20076;-88
2023/01/09 06:50:08;;;;;;;5.75;3.65;;;11.50;99.90;;;;;;4015997;29;20049;-87
2023/01/09 06:52:28;;;;;;;9.02;4.35;;;11.50;99.90;;;;;;4016626;29;20107;-86
2023/01/09 06:54:48;;;;;;;10.18;3.63;;;11.50;99.90;;;;;;4016109;29;20053;-86
2023/01/09 06:57:08;;;;;;;8.55;4.40;;;11.50;99.90;;;;;;4015402;29;20425;-87
2023/01/09 06:59:28;;;;;;;3.92;2.03;;;11.60;99.90;;;;;;4016473;29;20053;-86
2023/01/09 07:01:47;;;;;;;5.50;4.18;;;11.70;99.90;;;;;;4016458;29;20052;-86
2023/01/09 07:04:10;;;;;;;4.60;4.20;;;11.80;99.90;;;;;;4015422;29;20061;-86
2023/01/09 07:06:31;;;;;;;5.47;3.88;;;11.60;99.90;;;;;;4015436;29;20056;-87
2023/01/09 07:08:51;;;;;;;8.80;3.30;;;11.70;99.90;;;;;;4016513;29;20056;-87
2023/01/09 07:11:10;;;;;;;6.68;3.42;;;11.80;99.90;;;;;;4015929;29;20114;-87
2023/01/09 07:13:31;;;;;;;5.55;3.33;;;11.70;99.90;;;;;;4015426;29;20079;-87
2023/01/09 07:15:52;;;;;;;3.17;2.63;;;11.60;99.90;;;;;;4016359;29;20074;-86
2023/01/09 07:18:12;;;;;;;4.10;2.90;;;11.60;99.90;;;;;;4010787;29;20428;-87
2023/01/09 07:20:31;;;;;;;2.90;2.30;;;11.50;99.90;;;;;;4015440;29;20301;-87
2023/01/09 07:22:52;;;;;;;6.82;3.10;;;11.50;99.90;;;;;;4016257;29;20087;-87
2023/01/09 07:25:12;;;;;;;2.75;2.05;;;11.50;99.90;;;;;;4015654;29;20065;-87
2023/01/09 07:27:32;;;;;;;5.65;2.45;;;11.50;99.90;;;;;;4016132;29;20057;-87
2023/01/09 07:29:52;;;;;;;2.92;2.30;;;11.50;99.90;;;;;;4015211;29;20052;-87
2023/01/09 07:32:12;;;;;;;3.33;2.92;;;11.40;99.90;;;;;;4015812;29;20056;-87
2023/01/09 07:34:33;;;;;;;5.28;3.63;;;11.40;99.90;;;;;;4015318;29;20277;-87
2023/01/09 07:36:53;;;;;;;5.82;3.80;;;11.40;99.90;;;;;;4015137;29;20098;-87
2023/01/09 07:39:13;;;;;;;5.28;2.65;;;11.60;99.90;;;;;;4014454;29;20367;-87
2023/01/09 07:41:33;;;;;;;9.23;8.43;;;11.80;99.90;;;;;;4014042;29;20237;-87
2023/01/09 07:43:53;;;;;;;10.35;8.02;;;11.90;99.90;;;;;;4016007;29;20117;-87
2023/01/09 07:46:12;;;;;;;3.58;2.75;;;11.80;99.90;;;;;;4013234;29;20087;-87
2023/01/09 07:48:33;;;;;;;10.52;7.43;;;11.80;99.90;;;;;;4015402;29;20081;-87
2023/01/09 07:50:52;;;;;;;8.02;7.22;;;11.70;99.90;;;;;;4016739;29;20080;-86
2023/01/09 07:53:13;;;;;;;4.32;3.47;;;11.60;99.90;;;;;;4006370;29;20298;-87
2023/01/09 07:55:32;;;;;;;4.40;4.05;;;11.60;99.90;;;;;;4014828;29;20416;-87
2023/01/09 07:57:52;;;;;;;5.07;3.47;;;11.60;99.90;;;;;;4014633;29;20082;-87
2023/01/09 08:00:12;;;;;;;7.95;4.68;;;11.50;99.90;;;;;;4015850;29;20109;-87
2023/01/09 08:02:32;;;;;;;4.78;4.20;;;11.50;99.90;;;;;;4015717;29;20128;-87
2023/01/09 08:04:52;;;;;;;2.90;2.00;;;11.40;99.90;;;;;;4015205;29;20057;-87
2023/01/09 08:07:13;;;;;;;3.30;2.88;;;11.90;99.90;;;;;;4015767;29;20375;-87
2023/01/09 08:09:32;;;;;;;6.68;3.72;;;11.90;99.90;;;;;;4014744;29;20056;-87
2023/01/09 08:11:53;;;;;;;4.57;4.18;;;11.70;99.90;;;;;;4015509;29;20345;-87
2023/01/09 08:14:13;;;;;;;4.45;4.05;;;11.60;99.90;;;;;;4015306;29;20110;-87
2023/01/09 08:16:32;;;;;;;4.18;3.88;;;11.50;99.90;;;;;;4014374;29;20064;-87
2023/01/09 08:18:52;;;;;;;8.57;5.22;;;11.50;99.90;;;;;;4013923;29;20048;-87
2023/01/09 08:21:13;;;;;;;4.13;3.83;;;11.50;99.90;;;;;;4015586;29;20053;-87
2023/01/09 08:23:33;;;;;;;5.40;3.60;;;11.60;99.90;;;;;;4015537;29;20075;-86
2023/01/09 08:25:52;;;;;;;5.30;2.67;;;11.70;99.90;;;;;;4004681;29;20056;-87
2023/01/09 08:28:12;;;;;;;3.50;2.60;;;11.80;99.90;;;;;;4014486;29;20079;-87
2023/01/09 08:30:33;;;;;;;5.15;3.25;;;11.90;99.90;;;;;;4014031;29;20056;-87
2023/01/09 08:32:53;;;;;;;4.15;3.65;;;11.90;99.90;;;;;;4015277;29;20049;-87
2023/01/09 08:35:13;;;;;;;9.85;4.72;;;11.80;99.90;;;;;;4015193;29;20045;-86
2023/01/09 08:37:32;;;;;;;2.47;2.22;;;11.70;99.90;;;;;;4014990;29;20064;-86
2023/01/09 08:39:52;;;;;;;5.40;2.40;;;11.60;99.90;;;;;;4015286;29;20056;-86
2023/01/09 08:47:32;;;;;;;2.75;2.55;;;11.60;99.90;;;;;;4014478;29;20391;-87
2023/01/09 08:49:53;;;;;;;4.85;2.83;;;11.60;99.90;;;;;;4014736;29;20114;-86
2023/01/09 08:52:12;;;;;;;4.28;3.53;;;11.60;99.90;;;;;;4014848;29;20053;-86
2023/01/09 08:54:35;;;;;;;5.03;3.17;;;11.50;99.90;;;;;;4015171;29;20052;-87
2023/01/09 08:56:55;;;;;;;3.97;3.55;;;11.50;99.90;;;;;;4014874;29;20109;-87
2023/01/09 08:59:15;;;;;;;4.00;2.80;;;11.50;99.90;;;;;;4027012;29;20093;-86
2023/01/09 09:01:36;;;;;;;5.07;4.10;;;11.50;99.90;;;;;;4014943;29;20057;-86
2023/01/09 09:03:55;;;;;;;4.18;3.72;;;11.50;99.90;;;;;;4015067;29;20379;-86
2023/01/09 09:06:16;;;;;;;4.22;3.83;;;11.40;99.90;;;;;;4007539;29;20068;-86
2023/01/09 09:08:36;;;;;;;6.32;2.83;;;11.40;99.90;;;;;;4017422;29;20133;-86
2023/01/09 09:10:56;;;;;;;7.15;2.97;;;11.30;99.90;;;;;;4027033;29;20139;-86
2023/01/09 09:13:16;;;;;;;2.28;2.03;;;11.30;99.90;;;;;;4014070;29;20081;-86
2023/01/09 09:15:37;;;;;;;2.45;2.25;;;11.30;99.90;;;;;;4014629;29;20129;-86
2023/01/09 09:18:03;;;;;;;8.25;4.45;;;11.30;99.90;;;;;;4026938;29;20068;-86
2023/01/09 09:20:30;;;;;;;2.45;2.25;;;11.40;99.90;;;;;;4001855;29;20091;-87
2023/01/09 09:22:50;;;;;;;6.03;3.38;;;11.70;99.90;;;;;;4012680;29;20069;-87
2023/01/09 09:25:10;;;;;;;5.45;2.95;;;12.00;99.90;;;;;;4014539;29;20451;-87
2023/01/09 09:27:30;;;;;;;3.28;2.97;;;11.90;99.90;;;;;;4014886;29;20404;-86
2023/01/09 09:29:50;;;;;;;4.97;1.77;;;11.70;99.90;;;;;;4001701;29;20178;-87
2023/01/09 09:32:11;;;;;;;4.22;3.80;;;11.80;99.90;;;;;;4014272;29;20413;-86
2023/01/09 09:34:31;;;;;;;1.95;1.85;;;11.90;99.90;;;;;;4004563;29;20048;-87
2023/01/09 09:36:50;;;;;;;7.75;3.10;;;11.90;99.90;;;;;;4016712;29;20109;-87
2023/01/09 09:39:11;;;;;;;2.42;2.00;;;12.10;99.90;;;;;;4025731;29;20076;-86
2023/01/09 09:44:42;;;;;;;4.55;3.28;;;11.90;99.90;;;;;;4014035;29;20094;-86
2023/01/09 09:47:27;;;;;;;5.25;2.58;;;11.70;99.90;;;;;;4008924;29;20083;-86
2023/01/09 09:50:11;;;;;;;2.17;1.80;;;11.80;99.90;;;;;;4012171;29;20061;-86
2023/01/09 09:52:59;;;;;;;4.35;2.70;;;11.70;99.90;;;;;;4004042;29;20125;-87
2023/01/09 09:55:34;;;;;;;3.38;3.00;;;11.70;99.90;;;;;;4006255;29;20118;-87
2023/01/09 09:57:55;;;;;;;4.95;4.40;;;11.70;99.90;;;;;;4005300;29;20058;-87
2023/01/09 10:00:18;;;;;;;6.10;5.55;;;11.70;99.90;;;;;;4015974;29;20060;-87
2023/01/09 10:02:49;;;;;;;4.30;2.83;;;11.80;99.90;;;;;;4016597;29;20069;-87
2023/01/09 10:05:20;;;;;;;4.57;2.45;;;12.00;99.90;;;;;;4015987;29;20249;-87
2023/01/09 10:07:46;;;;;;;2.50;2.40;;;12.20;99.90;;;;;;4016776;29;20052;-87
2023/01/09 10:10:14;;;;;;;2.60;2.30;;;12.00;99.90;;;;;;4017019;29;20094;-87
2023/01/09 10:12:44;;;;;;;6.05;3.30;;;11.90;99.90;;;;;;4015927;29;20237;-87
2023/01/09 10:15:18;;;;;;;3.28;3.08;;;11.90;99.90;;;;;;4016873;29;20233;-87
2023/01/09 10:17:55;;;;;;;2.80;2.08;;;11.90;99.90;;;;;;4016349;29;20045;-87
2023/01/09 10:20:33;;;;;;;2.95;2.72;;;11.90;99.90;;;;;;4016810;29;20076;-89
2023/01/09 10:23:20;;;;;;;6.65;3.97;;;11.90;99.90;;;;;;4016003;29;20466;-88
2023/01/09 10:25:47;;;;;;;5.55;3.40;;;11.90;99.90;;;;;;4016593;29;20118;-90
2023/01/09 10:28:26;;;;;;;11.18;5.90;;;11.90;99.90;;;;;;4003571;29;20377;-90
2023/01/09 10:30:59;;;;;;;8.98;7.55;;;12.00;99.90;;;;;;4010924;29;20409;-89
2023/01/09 10:33:49;;;;;;;4.93;3.72;;;12.10;99.90;;;;;;4008309;29;20434;-90
2023/01/09 10:36:21;;;;;;;4.22;4.13;;;12.10;99.90;;;;;;4015660;29;20121;-90
2023/01/09 10:38:45;;;;;;;4.93;3.90;;;12.00;99.90;;;;;;4016348;29;20061;-90
2023/01/09 10:41:15;;;;;;;5.55;5.07;;;12.00;99.90;;;;;;4016331;29;20147;-90
2023/01/09 10:43:48;;;;;;;6.18;2.72;;;12.00;99.90;;;;;;4028445;29;20264;-89
2023/01/09 10:46:19;;;;;;;2.80;2.70;;;12.10;99.90;;;;;;4031950;29;20387;-90
2023/01/09 10:48:44;;;;;;;2.30;1.98;;;12.20;99.90;;;;;;4028325;29;20371;-90
2023/01/09 10:51:18;;;;;;;4.00;2.08;;;12.20;99.90;;;;;;4028152;29;20061;-90
2023/01/09 10:53:44;;;;;;;2.63;2.15;;;12.10;99.90;;;;;;4028034;29;20053;-89
2023/01/09 10:56:26;;;;;;;3.88;2.58;;;12.00;99.90;;;;;;4017287;29;20133;-90
2023/01/09 10:58:46;;;;;;;2.70;2.50;;;12.00;99.90;;;;;;4015986;29;20053;-90
2023/01/09 11:01:07;;;;;;;7.05;3.60;;;12.20;99.90;;;;;;4021902;29;20403;-90
2023/01/09 11:03:28;;;;;;;4.95;2.47;;;12.40;99.90;;;;;;4010256;29;20061;-90
2023/01/09 11:05:57;;;;;;;4.45;4.05;;;12.30;99.90;;;;;;4015149;29;20094;-90
2023/01/09 11:08:23;;;;;;;2.03;1.92;;;12.40;99.90;;;;;;4008739;29;20049;-90
2023/01/09 11:10:54;;;;;;;2.38;2.15;;;12.60;99.90;;;;;;4027382;29;20041;-90
2023/01/09 11:13:25;;;;;;;6.35;1.80;;;12.60;99.90;;;;;;4014389;29;20086;-90
2023/01/09 11:15:57;;;;;;;3.28;2.65;;;12.70;99.90;;;;;;4015621;29;20044;-90
2023/01/09 11:18:20;;;;;;;2.45;1.90;;;12.90;99.90;;;;;;4027138;29;20064;-89
2023/01/09 11:20:40;;;;;;;4.05;1.75;;;12.80;99.90;;;;;;4009351;29;20130;-91
2023/01/09 11:23:00;;;;;;;1.63;1.40;;;12.90;99.90;;;;;;4015921;29;20257;-91
2023/01/09 11:25:23;;;;;;;3.17;1.88;;;12.80;99.90;;;;;;4016232;29;20061;-91
2023/01/09 11:27:43;;;;;;;2.08;1.98;;;13.00;99.90;;;;;;4016214;29;20061;-90
2023/01/09 11:30:19;;;;;;;9.50;2.70;;;13.10;99.90;;;;;;4015948;29;20417;-91
2023/01/09 11:32:40;;;;;;;5.30;4.25;;;13.30;99.90;;;;;;4006747;29;20057;-90
2023/01/09 11:35:03;;;;;;;4.30;3.88;;;13.40;99.90;;;;;;4015298;29;20146;-91
2023/01/09 11:37:27;;;;;;;6.18;5.88;;;13.20;99.90;;;;;;4027144;29;20390;-91
2023/01/09 11:39:47;;;;;;;2.60;1.88;;;13.10;99.90;;;;;;4012799;29;20044;-91
2023/01/09 11:42:49;;;;;;;3.05;2.30;;;13.00;99.90;;;;;;4015421;29;20060;-90
2023/01/09 11:45:01;;;;;;;;;;;13.10;99.90;;;;;;4016125;29;20379;-90
2023/01/09 11:47:38;;;;;;;4.22;1.70;;;13.50;99.90;;;;;;4027648;29;19934;-90
2023/01/09 11:50:16;;;;;;;5.03;2.78;;;13.40;99.90;;;;;;4015887;29;20049;-90
2023/01/09 11:52:36;;;;;;;4.05;1.85;;;13.40;99.90;;;;;;4015168;29;20056;-90
2023/01/09 11:55:03;;;;;;;2.80;2.60;;;13.30;99.90;;;;;;4027709;29;20052;-90
2023/01/09 11:57:24;;;;;;;4.53;3.38;;;13.50;99.90;;;;;;4018073;29;20104;-91
2023/01/09 11:59:44;;;;;;;2.53;2.40;;;13.80;99.90;;;;;;4026036;29;20052;-91
2023/01/09 12:02:31;;;;;;;4.30;1.90;;;13.80;99.90;;;;;;4021693;29;20057;-91
2023/01/09 12:04:57;;;;;;;3.40;1.83;;;13.80;99.90;;;;;;3985845;29;20392;-90
2023/01/09 12:07:35;;;;;;;2.90;2.55;;;14.30;99.90;;;;;;4015193;29;20053;-90
2023/01/09 12:10:21;;;;;;;9.07;2.28;;;14.60;99.90;;;;;;4015622;29;20061;-90
2023/01/09 12:12:59;;;;;;;2.38;1.75;;;14.50;99.90;;;;;;4015333;29;20049;-91
2023/01/09 12:16:04;;;;;;;2.42;1.90;;;14.40;99.90;;;;;;4014755;29;20064;-91
2023/01/09 12:18:55;;;;;;;4.28;3.55;;;13.90;99.90;;;;;;4014877;29;20057;-91
2023/01/09 12:21:24;;;;;;;5.18;4.55;;;13.80;99.90;;;;;;4028637;29;20057;-91
2023/01/09 12:23:59;;;;;;;7.30;2.40;;;14.00;99.90;;;;;;4004032;29;20243;-91
2023/01/09 12:26:37;;;;;;;2.45;2.25;;;13.70;99.90;;;;;;4015247;29;20044;-90
2023/01/09 12:29:18;;;;;;;4.18;1.33;;;14.00;99.90;;;;;;4014539;29;20082;-91
2023/01/09 12:32:03;;;;;;;4.03;3.38;;;14.00;99.90;;;;;;4015131;29;20048;-90
2023/01/09 12:34:51;;;;;;;2.13;1.30;;;14.10;99.90;;;;;;4009035;29;20045;-91
2023/01/09 12:37:29;;;;;;;2.55;1.92;;;14.20;99.90;;;;;;4015366;29;20264;-91
2023/01/09 12:39:55;;;;;;;3.05;1.50;;;13.70;99.90;;;;;;4015214;29;20044;-92
2023/01/09 12:42:18;;;;;;;5.82;1.83;;;13.20;99.90;;;;;;4015327;29;20106;-91
2023/01/09 12:44:54;;;;;;;2.53;1.65;;;12.90;99.90;;;;;;4015330;29;20078;-90
2023/01/09 12:47:27;;;;;;;2.75;1.80;;;12.30;99.90;;;;;;4005367;29;20052;-91